createdAt,value
2023-01-17T00:02:14.501Z,96085.09
2023-01-17T00:05:00.983Z,96086.80
2023-01-17T00:07:47.602Z,96088.97
2023-01-17T00:10:26.626Z,96098.54
2023-01-17T00:12:59.309Z,96104.83
2023-01-17T00:15:28.091Z,96095.80
2023-01-17T00:17:55.894Z,96087.98
2023-01-17T00:20:43.701Z,96081.55
2023-01-17T00:23:33.283Z,96078.76
2023-01-17T00:26:04.378Z,96088.19
2023-01-17T00:28:36.473Z,96088.73
2023-01-17T00:31:05.549Z,96086.70
2023-01-17T00:33:33.554Z,96087.52
2023-01-17T00:36:01.872Z,96086.59
2023-01-17T00:38:30.861Z,96087.66
2023-01-17T00:41:02.978Z,96081.52
2023-01-17T00:43:49.591Z,96078.10
2023-01-17T00:46:36.149Z,96068.49
2023-01-17T00:49:23.307Z,96056.02
2023-01-17T00:52:09.688Z,96051.08
2023-01-17T00:54:56.111Z,96043.32
2023-01-17T00:57:42.825Z,96036.09
2023-01-17T01:00:29.343Z,96034.52
2023-01-17T01:03:16.144Z,96038.38
2023-01-17T01:06:02.743Z,96043.71
2023-01-17T01:08:48.939Z,96050.09
2023-01-17T01:11:37.391Z,96053.08
2023-01-17T01:14:25.139Z,96047.86
2023-01-17T01:17:11.743Z,96043.52
2023-01-17T01:19:57.924Z,96043.64
2023-01-17T01:22:44.345Z,96045.95
2023-01-17T01:25:31.035Z,96042.98
2023-01-17T01:28:24.924Z,96040.91
2023-01-17T01:31:11.620Z,96027.98
2023-01-17T01:33:39.840Z,96020.05
2023-01-17T01:36:09.219Z,96010.54
2023-01-17T01:38:37.682Z,96004.98
2023-01-17T01:41:05.519Z,95999.66
2023-01-17T01:43:39.354Z,95993.29
2023-01-17T01:46:07.943Z,95982.19
2023-01-17T01:48:38.467Z,95973.86
2023-01-17T01:51:09.402Z,95978.52
2023-01-17T01:53:38.905Z,95982.48
2023-01-17T01:56:09.782Z,95983.88
2023-01-17T01:58:39.053Z,95976.66
2023-01-17T02:01:08.447Z,95961.18
2023-01-17T02:03:37.937Z,95950.15
2023-01-17T02:06:18.626Z,95961.64
2023-01-17T02:08:46.801Z,95966.27
2023-01-17T02:11:14.775Z,95954.55
2023-01-17T02:13:43.454Z,95959.66
2023-01-17T02:16:14.422Z,95959.95
2023-01-17T02:18:45.643Z,95963.51
2023-01-17T02:21:36.956Z,95963.98
2023-01-17T02:24:17.213Z,95954.96
2023-01-17T02:26:52.664Z,95947.05
2023-01-17T02:29:39.159Z,95957.36
2023-01-17T02:32:09.793Z,95961.86
2023-01-17T02:34:43.638Z,95958.42
2023-01-17T02:37:15.971Z,95954.11
2023-01-17T02:39:51.415Z,95953.78
2023-01-17T02:42:21.433Z,95955.86
2023-01-17T02:44:49.315Z,95959.36
2023-01-17T02:47:28.019Z,95958.91
2023-01-17T02:50:17.701Z,95956.33
2023-01-17T02:53:05.783Z,95955.95
2023-01-17T02:55:45.692Z,95956.64
2023-01-17T02:58:18.586Z,95951.34
2023-01-17T03:00:52.779Z,95954.31
2023-01-17T03:03:23.932Z,95957.56
2023-01-17T03:06:04.497Z,95955.15
2023-01-17T03:08:32.814Z,95954.71
2023-01-17T03:11:01.671Z,95962.30
2023-01-17T03:13:29.540Z,95959.93
2023-01-17T03:15:57.507Z,95953.83
2023-01-17T03:18:25.880Z,95958.56
2023-01-17T03:20:53.959Z,95955.11
2023-01-17T03:23:21.825Z,95953.36
2023-01-17T03:25:49.566Z,95950.36
2023-01-17T03:28:17.553Z,95953.14
2023-01-17T03:30:45.434Z,95953.69
2023-01-17T03:33:13.292Z,95954.17
2023-01-17T03:35:41.134Z,95957.23
2023-01-17T03:38:09.124Z,95959.27
2023-01-17T03:40:37.312Z,95962.84
2023-01-17T03:43:05.135Z,95966.39
2023-01-17T03:45:32.985Z,95962.11
2023-01-17T03:48:03.668Z,95961.04
2023-01-17T03:50:31.634Z,95961.38
2023-01-17T03:52:59.704Z,95960.31
2023-01-17T03:55:27.590Z,95959.21
2023-01-17T03:57:55.445Z,95954.38
2023-01-17T04:00:23.408Z,95957.88
2023-01-17T04:02:51.309Z,95955.50
2023-01-17T04:05:19.455Z,95954.48
2023-01-17T04:07:47.510Z,95955.08
2023-01-17T04:10:15.658Z,95959.44
2023-01-17T04:12:43.569Z,95957.64
2023-01-17T04:15:11.645Z,95957.58
2023-01-17T04:17:39.425Z,95961.60
2023-01-17T04:20:07.785Z,95970.83
2023-01-17T04:22:35.960Z,95978.88
2023-01-17T04:25:04.136Z,95979.06
2023-01-17T04:27:32.101Z,95981.19
2023-01-17T04:29:59.964Z,95988.23
2023-01-17T04:32:29.475Z,95989.02
2023-01-17T04:34:57.334Z,95992.70
2023-01-17T04:37:25.320Z,95993.04
2023-01-17T04:39:53.180Z,95996.79
2023-01-17T04:42:21.368Z,96005.83
2023-01-17T04:44:49.320Z,96013.53
2023-01-17T04:47:17.389Z,96017.90
2023-01-17T04:49:45.260Z,96017.34
2023-01-17T04:52:13.234Z,96019.52
2023-01-17T04:54:41.408Z,96016.86
2023-01-17T04:57:09.197Z,96018.89
2023-01-17T04:59:37.445Z,96020.98
2023-01-17T05:02:05.320Z,96019.46
2023-01-17T05:04:33.283Z,96017.23
2023-01-17T05:07:01.251Z,96013.02
2023-01-17T05:09:29.118Z,96014.40
2023-01-17T05:11:57.003Z,96014.11
2023-01-17T05:14:27.934Z,96010.02
2023-01-17T05:16:56.819Z,96005.39
2023-01-17T05:19:25.600Z,96006.50
2023-01-17T05:21:53.579Z,96004.23
2023-01-17T05:24:21.561Z,96000.13
2023-01-17T05:26:54.907Z,95999.33
2023-01-17T05:29:23.117Z,95995.36
2023-01-17T05:31:50.904Z,95994.45
2023-01-17T05:34:18.743Z,95991.52
2023-01-17T05:36:46.812Z,95990.99
2023-01-17T05:39:14.705Z,95987.81
2023-01-17T05:41:42.657Z,95985.98
2023-01-17T05:44:10.723Z,95984.11
2023-01-17T05:46:38.824Z,95978.29
2023-01-17T05:49:06.783Z,95974.87
2023-01-17T05:51:37.948Z,95976.08
2023-01-17T05:54:06.286Z,95982.29
2023-01-17T05:56:34.363Z,95983.70
2023-01-17T05:59:02.185Z,95986.92
2023-01-17T06:01:30.136Z,95986.59
2023-01-17T06:03:58.166Z,95982.77
2023-01-17T06:06:26.039Z,95980.00
2023-01-17T06:08:53.905Z,95980.69
2023-01-17T06:11:21.774Z,95977.98
2023-01-17T06:13:49.946Z,95974.66
2023-01-17T06:16:17.972Z,95984.27
2023-01-17T06:18:45.882Z,95984.83
2023-01-17T06:21:13.728Z,95985.13
2023-01-17T06:23:41.616Z,95991.14
2023-01-17T06:26:09.689Z,96005.40
2023-01-17T06:28:37.761Z,96007.06
2023-01-17T06:31:06.944Z,96003.23
2023-01-17T06:33:35.135Z,96007.15
2023-01-17T06:36:03.517Z,96009.91
2023-01-17T06:38:31.704Z,96014.02
2023-01-17T06:41:03.336Z,96017.71
2023-01-17T06:43:34.083Z,96012.70
2023-01-17T06:46:01.940Z,96009.75
2023-01-17T06:48:29.811Z,96004.04
2023-01-17T06:50:58.262Z,96006.41
2023-01-17T06:53:26.257Z,96004.54
2023-01-17T06:55:57.922Z,95998.48
2023-01-17T06:58:25.898Z,95989.11
2023-01-17T07:00:54.098Z,95982.77
2023-01-17T07:03:23.564Z,95987.68
2023-01-17T07:05:52.153Z,95985.92
2023-01-17T07:08:20.649Z,95979.80
2023-01-17T07:10:49.098Z,95984.52
2023-01-17T07:13:17.193Z,95990.27
2023-01-17T07:15:45.872Z,95991.84
2023-01-17T07:18:14.669Z,95987.35
2023-01-17T07:20:44.173Z,95977.11
2023-01-17T07:23:12.649Z,95977.12
2023-01-17T07:25:40.629Z,95980.18
2023-01-17T07:28:08.794Z,95981.74
2023-01-17T07:30:37.170Z,95982.98
2023-01-17T07:33:05.645Z,95982.40
2023-01-17T07:35:33.637Z,95987.52
2023-01-17T07:38:01.589Z,95991.57
2023-01-17T07:40:29.426Z,95988.62
2023-01-17T07:43:01.834Z,95992.73
2023-01-17T07:45:29.662Z,95999.27
2023-01-17T07:47:57.971Z,96007.58
2023-01-17T07:50:25.948Z,96012.77
2023-01-17T07:52:54.526Z,96012.77
2023-01-17T07:55:22.905Z,96020.55
2023-01-17T07:57:51.107Z,96027.58
2023-01-17T08:00:19.660Z,96034.34
2023-01-17T08:02:47.541Z,96032.84
2023-01-17T08:05:15.801Z,96033.71
2023-01-17T08:07:43.772Z,96038.76
2023-01-17T08:10:13.521Z,96037.85
2023-01-17T08:12:41.409Z,96046.99
2023-01-17T08:15:09.835Z,96045.97
2023-01-17T08:17:37.682Z,96052.86
2023-01-17T08:20:06.384Z,96060.73
2023-01-17T08:22:34.257Z,96066.71
2023-01-17T08:25:02.359Z,96063.39
2023-01-17T08:27:30.192Z,96062.13
2023-01-17T08:29:58.064Z,96060.54
2023-01-17T08:32:25.934Z,96057.89
2023-01-17T08:34:55.333Z,96057.63
2023-01-17T08:37:23.702Z,96054.35
2023-01-17T08:39:51.570Z,96050.08
2023-01-17T08:42:19.455Z,96055.04
2023-01-17T08:44:47.311Z,96055.30
2023-01-17T08:47:15.286Z,96056.23
2023-01-17T08:49:44.169Z,96066.95
2023-01-17T08:52:14.618Z,96080.29
2023-01-17T08:54:42.483Z,96088.00
2023-01-17T08:57:10.638Z,96094.73
2023-01-17T08:59:38.505Z,96102.08
2023-01-17T09:02:14.995Z,96106.17
2023-01-17T09:04:46.531Z,96114.51
2023-01-17T09:07:15.313Z,96124.69
2023-01-17T09:09:43.183Z,96135.94
2023-01-17T09:12:11.165Z,96142.86
2023-01-17T09:14:39.231Z,96144.75
2023-01-17T09:17:07.298Z,96148.73
2023-01-17T09:19:35.754Z,96153.79
2023-01-17T09:22:04.777Z,96158.36
2023-01-17T09:24:33.457Z,96155.16
2023-01-17T09:27:01.737Z,96153.84
2023-01-17T09:29:29.808Z,96146.81
2023-01-17T09:31:57.881Z,96129.92
2023-01-17T09:34:25.851Z,96120.69
2023-01-17T09:36:54.026Z,96114.98
2023-01-17T09:39:21.997Z,96105.16
2023-01-17T09:42:12.798Z,96095.36
2023-01-17T09:44:43.134Z,96100.23
2023-01-17T09:47:14.026Z,96094.91
2023-01-17T09:49:45.812Z,96083.88
2023-01-17T09:52:14.911Z,96082.91
2023-01-17T09:54:44.832Z,96087.37
2023-01-17T09:57:31.332Z,96102.02
2023-01-17T10:00:05.905Z,96100.49
2023-01-17T10:02:44.256Z,96105.95
2023-01-17T10:05:18.278Z,96104.23
2023-01-17T10:08:05.092Z,96110.77
2023-01-17T10:10:39.101Z,96112.92
2023-01-17T10:13:26.012Z,96114.46
2023-01-17T10:16:01.466Z,96111.68
2023-01-17T10:18:35.371Z,96112.30
2023-01-17T10:21:12.538Z,96111.39
2023-01-17T10:23:43.408Z,96115.37
2023-01-17T10:26:20.477Z,96120.90
2023-01-17T10:28:51.220Z,96124.86
2023-01-17T10:31:19.189Z,96137.45
2023-01-17T10:33:53.028Z,96149.17
2023-01-17T10:36:21.003Z,96157.55
2023-01-17T10:38:52.308Z,96146.54
2023-01-17T10:41:32.257Z,96133.98
2023-01-17T10:44:18.755Z,96128.23
2023-01-17T10:46:55.642Z,96121.63
2023-01-17T10:49:24.833Z,96116.27
2023-01-17T10:52:11.845Z,96118.75
2023-01-17T10:54:55.286Z,96118.36
2023-01-17T10:57:24.491Z,96125.55
2023-01-17T10:59:53.161Z,96131.54
2023-01-17T11:02:40.048Z,96127.83
2023-01-17T11:05:19.421Z,96126.50
2023-01-17T11:07:58.134Z,96125.02
2023-01-17T11:10:38.015Z,96122.56
2023-01-17T11:13:07.600Z,96127.35
2023-01-17T11:15:39.696Z,96121.64
2023-01-17T11:18:15.822Z,96114.64
2023-01-17T11:20:43.892Z,96114.85
2023-01-17T11:23:14.826Z,96113.96
2023-01-17T11:25:55.197Z,96120.77
2023-01-17T11:28:30.469Z,96116.62
2023-01-17T11:31:03.847Z,96105.92
2023-01-17T11:33:58.015Z,96108.64
2023-01-17T11:36:28.552Z,96102.36
2023-01-17T11:38:56.682Z,96098.74
2023-01-17T11:41:28.364Z,96095.08
2023-01-17T11:43:57.591Z,96084.01
2023-01-17T11:46:26.310Z,96073.39
2023-01-17T11:48:56.455Z,96068.69
2023-01-17T11:51:27.219Z,96071.38
2023-01-17T11:54:03.513Z,96068.45
2023-01-17T11:56:33.322Z,96059.33
2023-01-17T11:59:12.497Z,96058.91
2023-01-17T12:01:51.246Z,96054.05
2023-01-17T12:04:23.116Z,96042.89
2023-01-17T12:07:00.499Z,96041.33
2023-01-17T12:09:52.735Z,96056.16
2023-01-17T12:12:53.372Z,96041.46
2023-01-17T12:15:26.247Z,96031.32
2023-01-17T12:17:56.991Z,96040.31
2023-01-17T12:20:36.324Z,96037.96
2023-01-17T12:23:26.716Z,96039.02
2023-01-17T12:26:20.899Z,96044.29
2023-01-17T12:28:51.533Z,96062.58
2023-01-17T12:31:25.971Z,96062.70
2023-01-17T12:34:12.064Z,96062.66
2023-01-17T12:36:50.459Z,96065.96
2023-01-17T12:39:21.916Z,96074.89
2023-01-17T12:42:08.518Z,96072.66
2023-01-17T12:44:59.783Z,96072.14
2023-01-17T12:47:27.907Z,96072.24
2023-01-17T12:50:14.308Z,96060.14
2023-01-17T12:52:42.691Z,96043.67
2023-01-17T12:55:20.303Z,96037.42
2023-01-17T12:57:54.196Z,96038.79
2023-01-17T13:00:25.574Z,96033.73
2023-01-17T13:03:04.296Z,96035.14
2023-01-17T13:05:41.142Z,96036.23
2023-01-17T13:08:22.223Z,96037.20
2023-01-17T13:10:59.616Z,96038.79
2023-01-17T13:13:29.112Z,96035.30
2023-01-17T13:15:57.053Z,96037.27
2023-01-17T13:18:26.490Z,96044.11
2023-01-17T13:20:58.138Z,96049.36
2023-01-17T13:23:35.323Z,96053.31
2023-01-17T13:26:03.600Z,96061.14
2023-01-17T13:28:37.439Z,96060.95
2023-01-17T13:31:17.609Z,96067.64
2023-01-17T13:33:57.821Z,96073.91
2023-01-17T13:36:44.731Z,96076.83
2023-01-17T13:39:33.190Z,96075.95
2023-01-17T13:42:03.928Z,96081.70
2023-01-17T13:44:32.404Z,96091.47
2023-01-17T13:47:04.395Z,96095.02
2023-01-17T13:49:36.866Z,96107.17
2023-01-17T13:52:04.808Z,96105.41
2023-01-17T13:54:33.613Z,96107.14
2023-01-17T13:57:20.308Z,96111.19
2023-01-17T13:59:48.390Z,96116.30
2023-01-17T14:02:34.408Z,96105.95
2023-01-17T14:05:11.366Z,96093.06
2023-01-17T14:07:47.925Z,96090.85
2023-01-17T14:10:28.043Z,96096.83
2023-01-17T14:12:56.661Z,96095.32
2023-01-17T14:15:28.415Z,96095.61
2023-01-17T14:17:58.744Z,96093.14
2023-01-17T14:20:29.575Z,96093.34
2023-01-17T14:23:02.465Z,96092.27
2023-01-17T14:25:41.098Z,96098.81
2023-01-17T14:28:18.165Z,96095.77
2023-01-17T14:30:46.432Z,96096.15
2023-01-17T14:33:18.715Z,96095.58
2023-01-17T14:35:51.713Z,96098.16
2023-01-17T14:38:42.364Z,96100.95
2023-01-17T14:41:30.865Z,96102.46
2023-01-17T14:44:01.194Z,96104.61
2023-01-17T14:46:32.534Z,96106.44
2023-01-17T14:49:04.497Z,96113.19
2023-01-17T14:51:37.281Z,96117.13
2023-01-17T14:54:17.527Z,96118.41
2023-01-17T14:56:45.495Z,96122.77
2023-01-17T14:59:14.950Z,96127.42
2023-01-17T15:02:06.558Z,96130.06
2023-01-17T15:04:39.782Z,96125.29
2023-01-17T15:07:12.805Z,96124.70
2023-01-17T15:09:42.517Z,96125.39
2023-01-17T15:12:13.899Z,96121.25
2023-01-17T15:14:43.584Z,96112.98
2023-01-17T15:17:31.721Z,96118.24
2023-01-17T15:20:01.880Z,96116.41
2023-01-17T15:22:30.424Z,96108.22
2023-01-17T15:24:59.107Z,96097.48
2023-01-17T15:27:27.383Z,96093.04
2023-01-17T15:29:59.351Z,96090.91
2023-01-17T15:32:32.024Z,96091.85
2023-01-17T15:35:02.975Z,96099.77
2023-01-17T15:37:35.149Z,96106.50
2023-01-17T15:40:06.344Z,96107.11
2023-01-17T15:42:36.610Z,96108.50
2023-01-17T15:45:06.873Z,96107.65
2023-01-17T15:47:38.842Z,96116.09
2023-01-17T15:50:30.267Z,96113.95
2023-01-17T15:53:02.884Z,96109.55
2023-01-17T15:55:31.060Z,96109.37
2023-01-17T15:57:59.748Z,96121.45
2023-01-17T16:00:38.391Z,96133.56
2023-01-17T16:03:22.104Z,96146.38
2023-01-17T16:05:50.691Z,96132.85
2023-01-17T16:08:27.978Z,96118.13
2023-01-17T16:10:58.811Z,96123.06
2023-01-17T16:13:26.786Z,96120.95
2023-01-17T16:15:54.917Z,96113.70
2023-01-17T16:18:24.249Z,96094.95
2023-01-17T16:20:55.756Z,96083.66
2023-01-17T16:23:23.889Z,96085.75
2023-01-17T16:25:51.852Z,96081.34
2023-01-17T16:28:23.005Z,96080.24
2023-01-17T16:30:54.153Z,96080.09
2023-01-17T16:33:22.228Z,96087.59
2023-01-17T16:35:53.727Z,96089.51
2023-01-17T16:38:21.642Z,96096.73
2023-01-17T16:40:49.599Z,96105.46
2023-01-17T16:43:18.290Z,96107.73
2023-01-17T16:45:53.073Z,96110.77
2023-01-17T16:48:21.204Z,96106.55
2023-01-17T16:50:53.096Z,96099.27
2023-01-17T16:53:24.490Z,96095.33
2023-01-17T16:55:55.252Z,96094.81
2023-01-17T16:58:23.201Z,96092.23
2023-01-17T17:00:51.411Z,96095.42
2023-01-17T17:03:22.112Z,96098.30
2023-01-17T17:05:57.269Z,96090.52
2023-01-17T17:08:25.433Z,96084.39
2023-01-17T17:10:53.505Z,96083.75
2023-01-17T17:13:21.469Z,96066.83
2023-01-17T17:15:49.560Z,96059.34
2023-01-17T17:18:18.076Z,96059.34
2023-01-17T17:20:46.089Z,96055.02
2023-01-17T17:23:14.066Z,96045.64
2023-01-17T17:25:42.028Z,96041.27
2023-01-17T17:28:10.429Z,96032.88
2023-01-17T17:30:38.231Z,96024.50
2023-01-17T17:33:06.241Z,96025.33
2023-01-17T17:35:35.040Z,96023.27
2023-01-17T17:38:05.663Z,96026.70
2023-01-17T17:40:34.764Z,96037.79
2023-01-17T17:43:02.620Z,96036.71
2023-01-17T17:45:30.403Z,96039.61
2023-01-17T17:47:58.134Z,96037.56
2023-01-17T17:50:26.124Z,96039.68
2023-01-17T17:52:54.127Z,96041.53
2023-01-17T17:55:22.067Z,96038.83
2023-01-17T17:57:50.038Z,96026.96
2023-01-17T18:00:18.308Z,96021.29
2023-01-17T18:02:46.794Z,96024.73
2023-01-17T18:05:14.777Z,96024.06
2023-01-17T18:07:42.639Z,96018.86
2023-01-17T18:10:10.610Z,96008.63
2023-01-17T18:12:38.461Z,96005.66
2023-01-17T18:15:06.537Z,95999.70
2023-01-17T18:17:34.509Z,95987.94
2023-01-17T18:20:02.586Z,95976.02
2023-01-17T18:22:32.393Z,95968.30
2023-01-17T18:25:00.255Z,95968.55
2023-01-17T18:27:28.231Z,95971.44
2023-01-17T18:29:56.136Z,95979.24
2023-01-17T18:32:24.175Z,95976.77
2023-01-17T18:34:52.132Z,95977.90
2023-01-17T18:37:20.107Z,95974.86
2023-01-17T18:39:48.073Z,95969.00
2023-01-17T18:42:15.836Z,95967.46
2023-01-17T18:44:43.811Z,95960.83
2023-01-17T18:47:13.208Z,95959.13
2023-01-17T18:49:41.493Z,95955.98
2023-01-17T18:52:09.667Z,95948.58
2023-01-17T18:54:37.751Z,95947.40
2023-01-17T18:57:05.599Z,95938.75
2023-01-17T18:59:33.578Z,95928.98
2023-01-17T19:02:01.642Z,95929.86
2023-01-17T19:04:31.870Z,95932.74
2023-01-17T19:06:59.830Z,95928.70
2023-01-17T19:09:27.809Z,95929.34
2023-01-17T19:11:57.105Z,95923.61
2023-01-17T19:14:25.485Z,95916.11
2023-01-17T19:16:53.448Z,95913.11
2023-01-17T19:19:21.533Z,95914.96
2023-01-17T19:21:52.681Z,95918.85
2023-01-17T19:24:20.641Z,95924.38
2023-01-17T19:26:51.376Z,95917.61
2023-01-17T19:29:19.344Z,95911.31
2023-01-17T19:31:47.746Z,95907.54
2023-01-17T19:34:19.072Z,95905.59
2023-01-17T19:36:47.452Z,95899.43
2023-01-17T19:39:15.623Z,95889.52
2023-01-17T19:41:44.829Z,95882.84
2023-01-17T19:44:13.923Z,95872.45
2023-01-17T19:46:42.501Z,95858.05
2023-01-17T19:49:10.510Z,95846.80
2023-01-17T19:51:39.777Z,95842.77
2023-01-17T19:54:08.622Z,95836.38
2023-01-17T19:56:36.965Z,95830.94
2023-01-17T19:59:05.107Z,95828.66
2023-01-17T20:01:33.953Z,95823.09
2023-01-17T20:04:02.591Z,95825.34
2023-01-17T20:06:35.472Z,95829.59
2023-01-17T20:09:04.264Z,95817.63
2023-01-17T20:11:32.233Z,95813.63
2023-01-17T20:14:00.623Z,95812.77
2023-01-17T20:16:30.312Z,95819.86
2023-01-17T20:18:59.507Z,95826.73
2023-01-17T20:21:28.827Z,95826.54
2023-01-17T20:23:57.920Z,95822.70
2023-01-17T20:26:36.425Z,95817.44
2023-01-17T20:29:07.590Z,95815.71
2023-01-17T20:31:38.465Z,95818.42
2023-01-17T20:34:08.221Z,95814.42
2023-01-17T20:36:37.137Z,95807.77
2023-01-17T20:39:06.512Z,95810.79
2023-01-17T20:41:36.184Z,95809.44
2023-01-17T20:44:05.327Z,95809.40
2023-01-17T20:46:40.440Z,95802.80
2023-01-17T20:49:13.050Z,95791.41
2023-01-17T20:51:41.378Z,95788.98
2023-01-17T20:54:11.122Z,95788.81
2023-01-17T20:56:38.994Z,95784.29
2023-01-17T20:59:09.416Z,95782.29
2023-01-17T21:01:38.059Z,95780.80
2023-01-17T21:04:10.263Z,95771.21
2023-01-17T21:06:39.802Z,95758.09
2023-01-17T21:09:10.414Z,95757.53
2023-01-17T21:11:38.684Z,95762.48
2023-01-17T21:14:06.657Z,95754.70
2023-01-17T21:16:35.200Z,95749.95
2023-01-17T21:19:03.929Z,95761.34
2023-01-17T21:21:31.900Z,95764.40
2023-01-17T21:24:00.106Z,95758.67
2023-01-17T21:26:28.704Z,95751.34
2023-01-17T21:28:58.363Z,95752.08
2023-01-17T21:31:27.459Z,95747.52
2023-01-17T21:33:56.769Z,95739.85
2023-01-17T21:36:28.788Z,95740.65
2023-01-17T21:38:58.542Z,95745.70
2023-01-17T21:41:28.760Z,95736.13
2023-01-17T21:43:57.558Z,95728.99
2023-01-17T21:46:26.085Z,95731.14
2023-01-17T21:48:54.110Z,95735.23
2023-01-17T21:51:22.138Z,95732.80
2023-01-17T21:53:50.358Z,95728.98
2023-01-17T21:56:36.655Z,95735.48
2023-01-17T21:59:04.634Z,95737.84
2023-01-17T22:01:33.349Z,95733.30
2023-01-17T22:04:03.044Z,95730.08
2023-01-17T22:06:32.504Z,95724.77
2023-01-17T22:09:00.693Z,95723.58
2023-01-17T22:11:30.539Z,95723.65
2023-01-17T22:13:59.347Z,95721.60
2023-01-17T22:16:27.483Z,95708.88
2023-01-17T22:18:55.463Z,95695.09
2023-01-17T22:21:24.737Z,95689.30
2023-01-17T22:23:54.263Z,95672.20
2023-01-17T22:26:25.079Z,95664.28
2023-01-17T22:28:53.422Z,95662.16
2023-01-17T22:31:23.397Z,95657.23
2023-01-17T22:34:02.122Z,95663.05
2023-01-17T22:36:31.807Z,95656.14
2023-01-17T22:38:59.761Z,95643.80
2023-01-17T22:41:33.004Z,95636.44
2023-01-17T22:44:05.630Z,95633.80
2023-01-17T22:46:35.672Z,95628.68
2023-01-17T22:49:04.276Z,95629.39
2023-01-17T22:51:32.215Z,95630.14
2023-01-17T22:54:00.839Z,95626.25
2023-01-17T22:56:30.395Z,95632.42
2023-01-17T22:58:58.644Z,95637.85
2023-01-17T23:01:27.715Z,95638.95
2023-01-17T23:03:59.687Z,95642.50
2023-01-17T23:06:27.531Z,95638.77
2023-01-17T23:08:56.678Z,95639.31
2023-01-17T23:11:44.101Z,95644.14
2023-01-17T23:14:17.424Z,95652.53
2023-01-17T23:17:14.788Z,95647.55
2023-01-17T23:19:42.687Z,95647.73
2023-01-17T23:22:20.889Z,95659.55
2023-01-17T23:24:59.893Z,95663.67
2023-01-17T23:27:46.189Z,95667.11
2023-01-17T23:30:17.336Z,95668.42
2023-01-17T23:32:49.588Z,95676.09
2023-01-17T23:35:18.800Z,95676.48
2023-01-17T23:38:05.511Z,95681.15
2023-01-17T23:40:34.419Z,95683.25
2023-01-17T23:43:21.114Z,95682.89
2023-01-17T23:45:49.973Z,95679.44
2023-01-17T23:48:18.230Z,95690.06
2023-01-17T23:50:46.973Z,95674.89
2023-01-17T23:53:22.352Z,95685.36
2023-01-17T23:55:51.912Z,95698.91
2023-01-17T23:58:21.118Z,95693.76
